createdAt,value
2019-02-25T00:02:00.852Z,53.99
2019-02-25T00:04:26.867Z,54.11
2019-02-25T00:06:52.888Z,53.82
2019-02-25T00:09:18.902Z,53.89
2019-02-25T00:11:44.846Z,53.99
2019-02-25T00:14:10.767Z,53.69
2019-02-25T00:16:36.849Z,54.08
2019-02-25T00:19:02.908Z,53.58
2019-02-25T00:21:28.916Z,53.58
2019-02-25T00:23:54.874Z,53.32
2019-02-25T00:26:20.703Z,53.59
2019-02-25T00:28:47.560Z,53.51
2019-02-25T00:31:13.556Z,53.50
2019-02-25T00:33:39.495Z,53.86
2019-02-25T00:36:05.623Z,53.86
2019-02-25T00:38:31.575Z,54.04
2019-02-25T00:40:57.504Z,54.26
2019-02-25T00:43:23.499Z,54.71
2019-02-25T00:45:49.452Z,54.91
2019-02-25T00:48:15.391Z,54.61
2019-02-25T00:50:43.090Z,55.07
2019-02-25T00:53:09.045Z,54.87
2019-02-25T00:55:35.125Z,54.82
2019-02-25T00:58:01.162Z,54.75
2019-02-25T01:00:27.205Z,54.70
2019-02-25T01:02:53.312Z,54.64
2019-02-25T01:05:19.388Z,54.65
2019-02-25T01:07:45.414Z,54.20
2019-02-25T01:10:12.527Z,54.36
2019-02-25T01:12:40.624Z,54.11
2019-02-25T01:15:07.342Z,54.29
2019-02-25T01:17:33.502Z,53.74
2019-02-25T01:19:59.480Z,53.87
2019-02-25T01:22:25.435Z,54.18
2019-02-25T01:24:51.945Z,54.14
2019-02-25T01:27:17.853Z,54.31
2019-02-25T01:29:43.914Z,54.65
2019-02-25T01:32:10.094Z,54.34
2019-02-25T01:34:36.101Z,53.96
2019-02-25T01:37:02.159Z,53.64
2019-02-25T01:39:27.995Z,53.77
2019-02-25T01:41:53.928Z,53.52
2019-02-25T01:44:19.907Z,53.42
2019-02-25T01:46:45.868Z,53.67
2019-02-25T01:49:11.844Z,53.55
2019-02-25T01:51:37.793Z,53.44
2019-02-25T01:54:03.742Z,53.54
2019-02-25T01:56:29.638Z,53.19
2019-02-25T01:58:55.465Z,53.03
2019-02-25T02:01:21.440Z,52.93
2019-02-25T02:03:47.357Z,52.81
2019-02-25T02:06:13.173Z,52.71
2019-02-25T02:08:39.017Z,53.33
2019-02-25T02:11:05.026Z,53.18
2019-02-25T02:13:30.955Z,53.42
2019-02-25T02:15:56.911Z,53.97
2019-02-25T02:18:22.810Z,53.99
2019-02-25T02:20:48.774Z,53.54
2019-02-25T02:23:14.585Z,53.82
2019-02-25T02:25:40.585Z,53.81
2019-02-25T02:28:06.646Z,53.91
2019-02-25T02:30:32.898Z,54.14
2019-02-25T02:32:58.816Z,54.10
2019-02-25T02:35:24.760Z,54.52
2019-02-25T02:37:50.729Z,54.74
2019-02-25T02:40:16.627Z,54.69
2019-02-25T02:42:52.236Z,54.49
2019-02-25T02:45:24.662Z,54.56
2019-02-25T02:48:00.209Z,55.01
2019-02-25T02:50:26.158Z,54.90
2019-02-25T02:52:52.212Z,55.54
2019-02-25T02:55:18.350Z,54.98
2019-02-25T02:57:44.177Z,55.22
2019-02-25T03:00:12.989Z,55.23
2019-02-25T03:02:39.112Z,55.26
2019-02-25T03:05:08.170Z,55.23
2019-02-25T03:07:34.024Z,55.69
2019-02-25T03:09:59.905Z,55.57
2019-02-25T03:12:25.854Z,55.00
2019-02-25T03:14:51.823Z,54.63
2019-02-25T03:17:17.728Z,54.17
2019-02-25T03:19:43.579Z,54.29
2019-02-25T03:22:09.425Z,54.55
2019-02-25T03:24:35.559Z,54.96
2019-02-25T03:27:01.577Z,54.52
2019-02-25T03:29:27.548Z,54.36
2019-02-25T03:31:53.513Z,54.20
2019-02-25T03:34:19.415Z,54.24
2019-02-25T03:36:45.430Z,54.46
2019-02-25T03:39:11.335Z,54.81
2019-02-25T03:41:37.413Z,54.61
2019-02-25T03:44:03.387Z,55.14
2019-02-25T03:46:29.242Z,54.96
2019-02-25T03:48:55.053Z,54.85
2019-02-25T03:51:20.958Z,54.85
2019-02-25T03:53:46.953Z,54.75
2019-02-25T03:56:12.793Z,54.59
2019-02-25T03:58:38.853Z,54.87
2019-02-25T04:01:04.964Z,55.14
2019-02-25T04:03:30.886Z,55.43
2019-02-25T04:05:56.815Z,55.32
2019-02-25T04:08:22.900Z,55.32
2019-02-25T04:10:48.727Z,55.02
2019-02-25T04:13:14.583Z,54.96
2019-02-25T04:15:42.449Z,54.87
2019-02-25T04:18:08.499Z,54.78
2019-02-25T04:20:34.462Z,54.69
2019-02-25T04:23:00.300Z,54.76
2019-02-25T04:25:26.244Z,54.89
2019-02-25T04:27:52.304Z,54.65
2019-02-25T04:30:18.168Z,54.77
2019-02-25T04:32:44.067Z,55.06
2019-02-25T04:35:11.519Z,55.36
2019-02-25T04:37:41.481Z,55.36
2019-02-25T04:40:12.562Z,55.69
2019-02-25T04:42:38.405Z,56.00
2019-02-25T04:45:07.932Z,55.55
2019-02-25T04:47:33.786Z,55.78
2019-02-25T04:49:59.610Z,55.57
2019-02-25T04:52:25.477Z,56.21
2019-02-25T04:54:51.341Z,56.59
2019-02-25T04:57:17.192Z,57.07
2019-02-25T04:59:43.044Z,57.12
2019-02-25T05:02:08.881Z,56.80
2019-02-25T05:04:34.749Z,56.57
2019-02-25T05:07:00.588Z,56.28
2019-02-25T05:09:26.432Z,55.87
2019-02-25T05:11:52.295Z,56.41
2019-02-25T05:14:18.219Z,56.29
2019-02-25T05:16:44.171Z,56.54
2019-02-25T05:19:10.032Z,56.70
2019-02-25T05:21:35.903Z,57.31
2019-02-25T05:24:01.786Z,57.11
2019-02-25T05:26:27.714Z,57.65
2019-02-25T05:28:53.556Z,57.70
2019-02-25T05:31:19.573Z,58.32
2019-02-25T05:33:45.406Z,57.84
2019-02-25T05:36:11.251Z,57.60
2019-02-25T05:38:37.194Z,57.67
2019-02-25T05:41:03.226Z,58.13
2019-02-25T05:43:29.150Z,58.18
2019-02-25T05:45:55.128Z,57.57
2019-02-25T05:48:20.962Z,57.61
2019-02-25T05:50:46.847Z,57.88
2019-02-25T05:53:12.781Z,58.23
2019-02-25T05:55:38.628Z,58.23
2019-02-25T05:58:04.629Z,58.28
2019-02-25T06:00:32.394Z,58.44
2019-02-25T06:02:58.408Z,58.61
2019-02-25T06:05:24.641Z,58.20
2019-02-25T06:07:50.493Z,58.42
2019-02-25T06:10:16.498Z,58.57
2019-02-25T06:12:42.417Z,58.31
2019-02-25T06:15:15.874Z,58.28
2019-02-25T06:17:41.857Z,58.35
2019-02-25T06:20:10.413Z,57.72
2019-02-25T06:22:36.301Z,57.48
2019-02-25T06:25:03.561Z,57.63
2019-02-25T06:27:30.924Z,57.32
2019-02-25T06:29:57.091Z,57.25
2019-02-25T06:32:23.033Z,57.04
2019-02-25T06:34:48.875Z,56.90
2019-02-25T06:37:14.850Z,56.77
2019-02-25T06:39:40.722Z,56.60
2019-02-25T06:42:06.627Z,56.55
2019-02-25T06:44:32.479Z,56.36
2019-02-25T06:46:58.439Z,56.26
2019-02-25T06:49:24.337Z,56.54
2019-02-25T06:51:50.323Z,56.20
2019-02-25T06:54:16.174Z,56.15
2019-02-25T06:56:42.209Z,56.16
2019-02-25T06:59:08.145Z,56.21
2019-02-25T07:01:33.967Z,56.23
2019-02-25T07:04:10.557Z,55.83
2019-02-25T07:06:41.248Z,54.80
2019-02-25T07:09:09.194Z,54.85
2019-02-25T07:11:36.926Z,54.57
2019-02-25T07:14:04.811Z,54.32
2019-02-25T07:16:44.427Z,53.98
2019-02-25T07:19:15.169Z,53.46
2019-02-25T07:21:49.040Z,53.46
2019-02-25T07:24:16.789Z,53.25
2019-02-25T07:26:45.893Z,53.17
2019-02-25T07:29:25.976Z,52.88
2019-02-25T07:31:53.739Z,52.82
2019-02-25T07:34:36.912Z,52.53
2019-02-25T07:37:04.835Z,52.24
2019-02-25T07:39:35.570Z,52.24
2019-02-25T07:42:06.112Z,51.61
2019-02-25T07:44:40.075Z,50.93
2019-02-25T07:47:10.871Z,50.60
2019-02-25T07:49:41.586Z,50.13
2019-02-25T07:52:24.502Z,49.74
2019-02-25T07:54:52.375Z,49.52
2019-02-25T07:57:20.148Z,49.14
2019-02-25T07:59:47.927Z,49.29
2019-02-25T08:02:27.692Z,49.08
2019-02-25T08:04:58.429Z,47.96
2019-02-25T08:07:26.256Z,47.96
2019-02-25T08:10:10.633Z,47.67
2019-02-25T08:12:51.014Z,47.91
2019-02-25T08:15:21.449Z,47.19
2019-02-25T08:17:51.769Z,47.15
2019-02-25T08:20:19.573Z,46.99
2019-02-25T08:23:03.784Z,46.65
2019-02-25T08:25:34.325Z,46.90
2019-02-25T08:28:18.570Z,46.79
2019-02-25T08:30:52.177Z,46.38
2019-02-25T08:33:32.617Z,45.96
2019-02-25T08:36:16.275Z,45.55
2019-02-25T08:38:59.071Z,45.67
2019-02-25T08:41:35.897Z,45.63
2019-02-25T08:44:15.874Z,46.03
2019-02-25T08:46:52.572Z,44.84
2019-02-25T08:49:20.360Z,43.88
2019-02-25T08:51:46.241Z,43.67
2019-02-25T08:54:12.396Z,43.14
2019-02-25T08:56:38.462Z,43.34
2019-02-25T08:59:04.463Z,44.39
2019-02-25T09:01:30.534Z,43.78
2019-02-25T09:03:56.461Z,43.58
2019-02-25T09:06:22.438Z,42.31
2019-02-25T09:08:48.263Z,42.20
2019-02-25T09:11:14.577Z,41.70
2019-02-25T09:13:40.918Z,41.35
2019-02-25T09:16:06.946Z,41.03
2019-02-25T09:18:33.034Z,41.09
2019-02-25T09:20:58.974Z,40.64
2019-02-25T09:23:24.998Z,40.67
2019-02-25T09:25:51.053Z,41.09
2019-02-25T09:28:17.075Z,40.32
2019-02-25T09:30:43.162Z,40.04
2019-02-25T09:33:09.087Z,40.13
2019-02-25T09:35:34.912Z,40.35
2019-02-25T09:38:00.841Z,40.47
2019-02-25T09:40:26.793Z,40.75
2019-02-25T09:42:56.869Z,39.95
2019-02-25T09:45:22.863Z,40.36
2019-02-25T09:47:48.692Z,40.63
2019-02-25T09:50:21.563Z,40.74
2019-02-25T09:52:47.526Z,41.06
2019-02-25T09:55:13.579Z,41.01
2019-02-25T09:57:39.460Z,41.07
2019-02-25T10:00:11.955Z,40.83
2019-02-25T10:02:37.802Z,40.62
2019-02-25T10:05:05.705Z,39.92
2019-02-25T10:07:31.545Z,40.10
2019-02-25T10:09:57.472Z,39.39
2019-02-25T10:12:23.326Z,39.14
2019-02-25T10:14:49.647Z,38.84
2019-02-25T10:17:23.512Z,38.40
2019-02-25T10:19:43.610Z,38.24
2019-02-25T10:22:09.464Z,38.11
2019-02-25T10:24:35.436Z,37.76
2019-02-25T10:27:01.251Z,37.39
2019-02-25T10:29:27.189Z,37.47
2019-02-25T10:31:53.161Z,37.44
2019-02-25T10:34:19.131Z,37.05
2019-02-25T10:36:46.087Z,37.37
2019-02-25T10:39:14.924Z,37.12
2019-02-25T10:41:40.628Z,36.95
2019-02-25T10:44:08.514Z,37.11
2019-02-25T10:46:34.299Z,36.95
2019-02-25T10:49:10.914Z,36.99
2019-02-25T10:51:28.069Z,36.65
2019-02-25T10:53:53.921Z,36.70
2019-02-25T10:56:25.441Z,37.10
2019-02-25T10:58:51.643Z,35.93
2019-02-25T11:01:19.895Z,36.27
2019-02-25T11:03:46.165Z,36.15
2019-02-25T11:06:13.248Z,35.44
2019-02-25T11:08:41.549Z,35.96
2019-02-25T11:11:13.624Z,35.60
2019-02-25T11:13:39.470Z,35.74
2019-02-25T11:16:05.792Z,35.98
2019-02-25T11:18:31.598Z,35.28
2019-02-25T11:20:59.072Z,35.54
2019-02-25T11:23:25.403Z,35.47
2019-02-25T11:25:51.525Z,35.31
2019-02-25T11:28:25.592Z,35.41
2019-02-25T11:30:49.138Z,34.93
2019-02-25T11:33:14.765Z,34.61
2019-02-25T11:35:41.532Z,34.82
2019-02-25T11:38:08.684Z,35.35
2019-02-25T11:40:36.555Z,35.51
2019-02-25T11:43:02.646Z,35.23
2019-02-25T11:45:29.010Z,35.45
2019-02-25T11:47:54.955Z,34.82
2019-02-25T11:50:20.902Z,34.66
2019-02-25T11:52:46.981Z,34.66
2019-02-25T11:55:14.422Z,34.92
2019-02-25T11:57:40.809Z,35.09
2019-02-25T12:00:16.693Z,35.21
2019-02-25T12:02:42.990Z,35.09
2019-02-25T12:05:09.820Z,34.87
2019-02-25T12:07:38.844Z,34.95
2019-02-25T12:10:08.114Z,35.42
2019-02-25T12:12:34.158Z,35.16
2019-02-25T12:15:00.513Z,34.92
2019-02-25T12:17:26.436Z,35.00
2019-02-25T12:19:52.283Z,34.75
2019-02-25T12:22:20.856Z,34.47
2019-02-25T12:24:46.778Z,34.22
2019-02-25T12:27:12.705Z,34.21
2019-02-25T12:29:38.679Z,33.95
2019-02-25T12:32:04.531Z,33.97
2019-02-25T12:34:30.444Z,32.93
2019-02-25T12:36:56.290Z,32.93
2019-02-25T12:39:22.246Z,32.69
2019-02-25T12:41:48.263Z,31.65
2019-02-25T12:44:14.372Z,23.38
2019-02-25T12:46:40.329Z,21.04
2019-02-25T12:49:06.203Z,20.35
2019-02-25T12:51:32.033Z,16.83
2019-02-25T12:53:57.884Z,17.25
2019-02-25T12:56:23.903Z,16.54
2019-02-25T12:58:49.742Z,17.92
2019-02-25T13:01:15.671Z,16.68
2019-02-25T13:03:41.643Z,19.85
2019-02-25T13:06:07.480Z,18.76
2019-02-25T13:08:33.337Z,19.44
2019-02-25T13:10:59.308Z,17.84
2019-02-25T13:13:25.346Z,14.44
2019-02-25T13:15:51.225Z,16.30
2019-02-25T13:18:17.077Z,16.18
2019-02-25T13:20:43.024Z,16.26
2019-02-25T13:23:09.004Z,14.60
2019-02-25T13:25:34.836Z,15.66
2019-02-25T13:28:02.099Z,15.67
2019-02-25T13:30:28.650Z,14.17
2019-02-25T13:32:54.514Z,11.95
2019-02-25T13:35:20.601Z,15.98
2019-02-25T13:37:46.541Z,13.59
2019-02-25T13:40:14.796Z,14.22
2019-02-25T13:42:40.953Z,10.83
2019-02-25T13:45:20.879Z,10.55
2019-02-25T13:47:46.843Z,12.68
2019-02-25T13:50:17.355Z,13.51
2019-02-25T13:52:48.532Z,13.46
2019-02-25T13:55:12.088Z,16.62
2019-02-25T13:57:38.205Z,15.02
2019-02-25T14:00:27.345Z,14.06
2019-02-25T14:02:53.365Z,13.84
2019-02-25T14:05:19.281Z,15.04
2019-02-25T14:07:45.329Z,14.19
2019-02-25T14:10:12.937Z,15.42
2019-02-25T14:12:38.889Z,12.81
2019-02-25T14:15:07.184Z,15.07
2019-02-25T14:17:33.380Z,17.46
2019-02-25T14:19:59.319Z,15.85
2019-02-25T14:22:25.184Z,16.02
2019-02-25T14:24:51.336Z,15.22
2019-02-25T14:27:17.331Z,15.02
2019-02-25T14:29:44.666Z,14.85
2019-02-25T14:32:12.036Z,13.88
2019-02-25T14:34:37.914Z,14.15
2019-02-25T14:37:04.809Z,12.49
2019-02-25T14:39:33.018Z,14.83
2019-02-25T14:41:59.261Z,14.49
2019-02-25T14:44:29.815Z,16.39
2019-02-25T14:46:56.582Z,14.46
2019-02-25T14:49:22.619Z,15.08
2019-02-25T14:51:48.687Z,16.67
2019-02-25T14:54:14.752Z,15.16
2019-02-25T14:56:43.007Z,15.17
2019-02-25T14:59:13.237Z,16.12
2019-02-25T15:01:38.359Z,15.47
2019-02-25T15:04:06.338Z,15.70
2019-02-25T15:06:32.971Z,14.03
2019-02-25T15:09:01.785Z,15.32
2019-02-25T15:11:28.022Z,16.37
2019-02-25T15:13:54.127Z,14.70
2019-02-25T15:16:20.037Z,16.24
2019-02-25T15:18:45.867Z,15.20
2019-02-25T15:21:15.232Z,11.80
2019-02-25T15:23:39.692Z,14.58
2019-02-25T15:26:06.771Z,15.25
2019-02-25T15:28:33.542Z,13.81
2019-02-25T15:31:00.106Z,13.96
2019-02-25T15:33:27.432Z,18.08
2019-02-25T15:35:53.663Z,20.17
2019-02-25T15:38:19.613Z,25.85
2019-02-25T15:40:45.548Z,26.01
2019-02-25T15:43:15.884Z,26.76
2019-02-25T15:45:42.694Z,26.73
2019-02-25T15:48:14.944Z,27.37
2019-02-25T15:50:44.042Z,27.50
2019-02-25T15:53:10.030Z,28.66
2019-02-25T15:55:37.295Z,28.33
2019-02-25T15:58:03.946Z,28.41
2019-02-25T16:00:32.143Z,28.40
2019-02-25T16:02:58.339Z,28.04
2019-02-25T16:05:27.401Z,28.48
2019-02-25T16:07:55.942Z,27.95
2019-02-25T16:10:23.364Z,28.87
2019-02-25T16:12:51.197Z,29.38
2019-02-25T16:15:18.896Z,29.76
2019-02-25T16:17:46.255Z,30.10
2019-02-25T16:20:17.556Z,30.04
2019-02-25T16:22:43.956Z,30.33
2019-02-25T16:25:18.479Z,30.16
2019-02-25T16:27:45.666Z,30.33
2019-02-25T16:30:13.573Z,30.32
2019-02-25T16:32:40.535Z,30.86
2019-02-25T16:35:10.429Z,31.47
2019-02-25T16:37:36.352Z,31.70
2019-02-25T16:40:06.512Z,31.73
2019-02-25T16:42:33.149Z,32.13
2019-02-25T16:45:01.420Z,32.61
2019-02-25T16:47:32.802Z,32.69
2019-02-25T16:50:00.919Z,33.87
2019-02-25T16:52:27.138Z,33.42
2019-02-25T16:54:53.278Z,34.10
2019-02-25T16:57:21.212Z,34.21
2019-02-25T16:59:46.986Z,34.97
2019-02-25T17:02:14.178Z,36.26
2019-02-25T17:04:40.375Z,36.05
2019-02-25T17:07:06.210Z,36.19
2019-02-25T17:09:34.232Z,36.31
2019-02-25T17:12:02.314Z,35.69
2019-02-25T17:14:28.401Z,37.01
2019-02-25T17:16:56.765Z,37.62
2019-02-25T17:19:22.548Z,38.54
2019-02-25T17:21:48.673Z,38.00
2019-02-25T17:24:14.612Z,38.70
2019-02-25T17:26:40.622Z,38.89
2019-02-25T17:29:06.573Z,39.44
2019-02-25T17:31:34.337Z,39.88
2019-02-25T17:34:00.186Z,40.80
2019-02-25T17:36:26.185Z,40.88
2019-02-25T17:38:52.343Z,41.57
2019-02-25T17:41:18.189Z,41.46
2019-02-25T17:43:44.178Z,42.49
2019-02-25T17:46:11.982Z,42.38
2019-02-25T17:48:37.874Z,41.95
2019-02-25T17:51:04.126Z,41.39
2019-02-25T17:53:31.059Z,41.69
2019-02-25T17:55:59.732Z,42.23
2019-02-25T17:58:25.934Z,42.06
2019-02-25T18:00:53.974Z,42.43
2019-02-25T18:03:21.698Z,42.54
2019-02-25T18:05:48.013Z,42.85
2019-02-25T18:08:15.338Z,41.97
2019-02-25T18:10:43.152Z,42.08
2019-02-25T18:13:10.873Z,42.83
2019-02-25T18:15:37.386Z,42.79
2019-02-25T18:18:06.897Z,42.69
2019-02-25T18:20:31.562Z,42.51
2019-02-25T18:22:57.718Z,42.75
2019-02-25T18:25:23.769Z,42.36
2019-02-25T18:27:50.504Z,42.42
2019-02-25T18:30:21.783Z,42.54
2019-02-25T18:32:48.097Z,42.80
2019-02-25T18:35:16.357Z,43.01
2019-02-25T18:37:43.490Z,43.41
2019-02-25T18:40:12.187Z,42.95
2019-02-25T18:42:40.843Z,43.16
2019-02-25T18:45:11.169Z,43.27
2019-02-25T18:47:38.298Z,42.66
2019-02-25T18:50:07.965Z,43.08
2019-02-25T18:52:35.804Z,42.58
2019-02-25T18:55:04.906Z,42.09
2019-02-25T18:57:30.965Z,41.73
2019-02-25T18:59:59.241Z,41.89
2019-02-25T19:02:24.944Z,42.31
2019-02-25T19:04:50.906Z,42.41
2019-02-25T19:07:17.041Z,42.27
2019-02-25T19:09:46.685Z,42.10
2019-02-25T19:12:10.815Z,42.53
2019-02-25T19:14:36.651Z,42.63
2019-02-25T19:17:04.871Z,42.94
2019-02-25T19:19:31.427Z,42.49
2019-02-25T19:21:58.884Z,42.71
2019-02-25T19:24:25.142Z,42.77
2019-02-25T19:26:51.056Z,42.77
2019-02-25T19:29:19.422Z,42.78
2019-02-25T19:31:45.368Z,42.76
2019-02-25T19:34:15.537Z,42.42
2019-02-25T19:36:41.197Z,41.80
2019-02-25T19:39:11.653Z,42.28
2019-02-25T19:41:38.041Z,42.42
2019-02-25T19:44:04.221Z,42.79
2019-02-25T19:46:32.064Z,42.86
2019-02-25T19:48:58.112Z,43.02
2019-02-25T19:51:29.698Z,43.19
2019-02-25T19:53:55.584Z,43.70
2019-02-25T19:56:21.634Z,43.93
2019-02-25T19:58:47.567Z,43.75
2019-02-25T20:01:13.453Z,43.43
2019-02-25T20:03:40.054Z,43.63
2019-02-25T20:06:11.143Z,43.82
2019-02-25T20:08:35.442Z,43.87
2019-02-25T20:11:01.343Z,43.87
2019-02-25T20:13:27.422Z,44.03
2019-02-25T20:15:55.578Z,43.66
2019-02-25T20:18:21.195Z,43.62
2019-02-25T20:20:47.354Z,43.57
2019-02-25T20:23:13.215Z,43.54
2019-02-25T20:25:42.408Z,43.86
2019-02-25T20:28:07.060Z,44.13
2019-02-25T20:30:33.198Z,44.90
2019-02-25T20:33:00.803Z,45.09
2019-02-25T20:35:28.990Z,45.42
2019-02-25T20:37:55.694Z,44.88
2019-02-25T20:40:24.165Z,45.33
2019-02-25T20:42:53.039Z,45.06
2019-02-25T20:45:31.036Z,45.15
2019-02-25T20:47:57.190Z,46.00
2019-02-25T20:50:24.566Z,45.66
2019-02-25T20:52:52.581Z,46.15
2019-02-25T20:55:18.531Z,46.58
2019-02-25T20:57:44.563Z,46.98
2019-02-25T21:00:16.027Z,46.39
2019-02-25T21:02:43.350Z,47.18
2019-02-25T21:05:11.568Z,47.51
2019-02-25T21:07:38.130Z,47.64
2019-02-25T21:10:08.822Z,47.68
2019-02-25T21:12:34.906Z,47.63
2019-02-25T21:15:01.140Z,47.58
2019-02-25T21:17:28.502Z,48.91
2019-02-25T21:19:56.115Z,48.47
2019-02-25T21:22:23.356Z,48.64
2019-02-25T21:24:54.022Z,48.64
2019-02-25T21:27:18.370Z,48.85
2019-02-25T21:29:44.405Z,48.90
2019-02-25T21:32:12.777Z,48.59
2019-02-25T21:34:38.375Z,49.47
2019-02-25T21:37:04.425Z,49.94
2019-02-25T21:39:31.985Z,50.76
2019-02-25T21:41:58.174Z,50.88
2019-02-25T21:44:26.212Z,50.70
2019-02-25T21:46:54.048Z,50.79
2019-02-25T21:49:24.958Z,50.05
2019-02-25T21:51:48.188Z,50.72
2019-02-25T21:54:14.099Z,50.81
2019-02-25T21:56:39.941Z,50.48
2019-02-25T21:59:06.602Z,50.06
2019-02-25T22:01:34.625Z,50.81
2019-02-25T22:04:01.535Z,50.86
2019-02-25T22:06:29.583Z,50.84
2019-02-25T22:08:56.808Z,50.54
2019-02-25T22:11:23.074Z,50.35
2019-02-25T22:13:48.891Z,51.41
2019-02-25T22:16:14.831Z,50.51
2019-02-25T22:18:40.750Z,50.60
2019-02-25T22:21:09.251Z,51.34
2019-02-25T22:23:35.441Z,51.17
2019-02-25T22:26:02.410Z,50.17
2019-02-25T22:28:30.464Z,50.19
2019-02-25T22:30:56.232Z,51.07
2019-02-25T22:33:27.559Z,51.21
2019-02-25T22:35:51.810Z,51.36
2019-02-25T22:38:18.047Z,51.35
2019-02-25T22:40:43.891Z,51.53
2019-02-25T22:43:12.081Z,51.74
2019-02-25T22:45:39.597Z,51.53
2019-02-25T22:48:05.772Z,51.35
2019-02-25T22:50:33.875Z,51.21
2019-02-25T22:53:01.634Z,50.99
2019-02-25T22:55:27.851Z,51.41
2019-02-25T22:57:54.201Z,51.71
2019-02-25T23:00:33.738Z,51.64
2019-02-25T23:02:59.981Z,51.83
2019-02-25T23:05:26.518Z,51.72
2019-02-25T23:07:55.006Z,50.81
2019-02-25T23:10:21.944Z,50.93
2019-02-25T23:12:48.794Z,50.99
2019-02-25T23:15:14.906Z,51.07
2019-02-25T23:17:42.854Z,51.09
2019-02-25T23:20:09.836Z,51.02
2019-02-25T23:22:36.646Z,51.16
2019-02-25T23:25:06.680Z,51.86
2019-02-25T23:27:34.310Z,51.96
2019-02-25T23:30:00.599Z,52.19
2019-02-25T23:32:26.416Z,51.74
2019-02-25T23:34:53.341Z,51.53
2019-02-25T23:37:21.757Z,51.31
2019-02-25T23:39:48.070Z,50.65
2019-02-25T23:42:15.776Z,50.37
2019-02-25T23:44:41.811Z,50.51
2019-02-25T23:47:08.963Z,50.21
2019-02-25T23:49:36.442Z,50.08
2019-02-25T23:52:03.216Z,50.43
2019-02-25T23:54:29.057Z,50.19
2019-02-25T23:57:00.170Z,50.23
2019-02-25T23:59:26.914Z,49.90
